createdAt,value
2022-08-23T00:02:23.108Z,100812.88
2022-08-23T00:05:08.285Z,100814.50
2022-08-23T00:07:42.515Z,100803.78
2022-08-23T00:10:11.717Z,100809.03
2022-08-23T00:12:38.946Z,100807.09
2022-08-23T00:15:07.683Z,100803.72
2022-08-23T00:17:35.537Z,100796.06
2022-08-23T00:20:11.463Z,100798.78
2022-08-23T00:22:38.439Z,100796.50
2022-08-23T00:25:06.922Z,100789.81
2022-08-23T00:27:33.564Z,100789.25
2022-08-23T00:30:00.485Z,100795.34
2022-08-23T00:32:32.835Z,100789.03
2022-08-23T00:35:00.363Z,100784.09
2022-08-23T00:37:28.683Z,100781.03
2022-08-23T00:39:55.447Z,100789.75
2022-08-23T00:42:53.126Z,100785.53
2022-08-23T00:45:46.102Z,100787.19
2022-08-23T00:48:13.091Z,100799.78
2022-08-23T00:50:52.520Z,100797.38
2022-08-23T00:53:32.189Z,100796.50
2022-08-23T00:56:03.530Z,100790.97
2022-08-23T00:58:30.822Z,100797.69
2022-08-23T01:00:59.811Z,100795.34
2022-08-23T01:03:28.997Z,100791.41
2022-08-23T01:06:19.488Z,100787.81
2022-08-23T01:08:50.270Z,100779.63
2022-08-23T01:11:26.547Z,100787.69
2022-08-23T01:14:01.095Z,100783.13
2022-08-23T01:16:33.699Z,100791.75
2022-08-23T01:19:03.034Z,100788.44
2022-08-23T01:21:41.325Z,100791.28
2022-08-23T01:24:08.317Z,100803.47
2022-08-23T01:26:35.322Z,100798.38
2022-08-23T01:29:06.381Z,100798.66
2022-08-23T01:31:33.508Z,100793.03
2022-08-23T01:34:03.733Z,100800.28
2022-08-23T01:36:31.400Z,100800.84
2022-08-23T01:38:57.881Z,100798.06
2022-08-23T01:41:24.590Z,100806.19
2022-08-23T01:43:51.903Z,100799.00
2022-08-23T01:46:21.409Z,100810.59
2022-08-23T01:48:49.691Z,100808.72
2022-08-23T01:51:19.276Z,100811.38
2022-08-23T01:53:46.589Z,100807.34
2022-08-23T01:56:15.290Z,100804.19
2022-08-23T01:58:42.247Z,100799.19
2022-08-23T02:01:08.966Z,100802.44
2022-08-23T02:03:37.149Z,100804.34
2022-08-23T02:06:04.361Z,100809.63
2022-08-23T02:08:49.424Z,100808.38
2022-08-23T02:11:22.155Z,100804.13
2022-08-23T02:13:50.452Z,100801.19
2022-08-23T02:17:03.748Z,100807.50
2022-08-23T02:19:34.846Z,100815.13
2022-08-23T02:22:01.390Z,100806.13
2022-08-23T02:24:27.951Z,100812.22
2022-08-23T02:26:57.612Z,100820.06
2022-08-23T02:29:29.448Z,100821.09
2022-08-23T02:34:24.035Z,100826.56
2022-08-23T02:36:52.614Z,100825.25
2022-08-23T02:39:19.421Z,100819.47
2022-08-23T02:41:45.941Z,100818.81
2022-08-23T02:44:13.161Z,100828.06
2022-08-23T02:46:40.549Z,100824.47
2022-08-23T02:49:07.284Z,100829.50
2022-08-23T02:51:34.155Z,100832.41
2022-08-23T02:54:01.357Z,100827.22
2022-08-23T02:56:27.943Z,100823.84
2022-08-23T02:58:54.965Z,100832.91
2022-08-23T03:01:33.415Z,100829.69
2022-08-23T03:04:00.293Z,100836.66
2022-08-23T03:06:28.018Z,100832.72
2022-08-23T03:08:56.479Z,100832.44
2022-08-23T03:11:24.931Z,100847.13
2022-08-23T03:13:52.483Z,100844.00
2022-08-23T03:16:19.801Z,100844.63
2022-08-23T03:18:46.846Z,100845.47
2022-08-23T03:21:13.687Z,100841.22
2022-08-23T03:23:41.168Z,100846.28
2022-08-23T03:26:10.385Z,100851.72
2022-08-23T03:28:39.778Z,100848.03
2022-08-23T03:31:07.990Z,100852.25
2022-08-23T03:33:34.738Z,100854.50
2022-08-23T03:36:04.771Z,100857.47
2022-08-23T03:38:31.287Z,100869.81
2022-08-23T03:40:58.397Z,100866.69
2022-08-23T03:43:24.951Z,100864.84
2022-08-23T03:45:51.508Z,100864.31
2022-08-23T03:48:18.137Z,100869.66
2022-08-23T03:50:45.264Z,100869.81
2022-08-23T03:53:13.031Z,100858.16
2022-08-23T03:55:42.499Z,100865.59
2022-08-23T03:58:11.066Z,100856.19
2022-08-23T04:00:38.497Z,100874.50
2022-08-23T04:03:05.180Z,100875.16
2022-08-23T04:05:31.630Z,100875.50
2022-08-23T04:07:58.331Z,100872.38
2022-08-23T04:10:25.086Z,100870.38
2022-08-23T04:12:54.837Z,100870.34
2022-08-23T04:15:22.289Z,100877.00
2022-08-23T04:17:49.431Z,100875.19
2022-08-23T04:20:16.363Z,100878.34
2022-08-23T04:22:42.820Z,100874.63
2022-08-23T04:25:33.111Z,100881.72
2022-08-23T04:27:59.331Z,100870.66
2022-08-23T04:30:27.021Z,100872.25
2022-08-23T04:32:53.503Z,100872.91
2022-08-23T04:35:21.049Z,100872.03
2022-08-23T04:37:47.506Z,100874.63
2022-08-23T04:40:32.914Z,100875.13
2022-08-23T04:42:59.481Z,100879.25
2022-08-23T04:45:27.155Z,100883.69
2022-08-23T04:47:53.943Z,100882.13
2022-08-23T04:50:21.753Z,100890.19
2022-08-23T04:52:48.260Z,100889.59
2022-08-23T04:55:14.742Z,100889.13
2022-08-23T04:57:42.513Z,100890.47
2022-08-23T05:00:14.497Z,100898.69
2022-08-23T05:02:41.021Z,100889.97
2022-08-23T05:05:09.579Z,100897.69
2022-08-23T05:07:42.129Z,100904.06
2022-08-23T05:10:14.484Z,100905.69
2022-08-23T05:12:41.390Z,100906.59
2022-08-23T05:15:12.315Z,100909.56
2022-08-23T05:17:39.374Z,100919.66
2022-08-23T05:20:08.339Z,100921.66
2022-08-23T05:22:36.777Z,100925.34
2022-08-23T05:25:04.025Z,100926.69
2022-08-23T05:27:30.579Z,100921.53
2022-08-23T05:29:57.107Z,100919.06
2022-08-23T05:32:23.867Z,100926.66
2022-08-23T05:34:50.326Z,100924.13
2022-08-23T05:37:17.879Z,100929.31
2022-08-23T05:39:44.408Z,100930.94
2022-08-23T05:42:14.554Z,100929.25
2022-08-23T05:44:41.328Z,100929.75
2022-08-23T05:47:10.780Z,100933.66
2022-08-23T05:49:39.146Z,100933.06
2022-08-23T05:52:07.889Z,100936.97
2022-08-23T05:54:35.059Z,100934.13
2022-08-23T05:57:02.049Z,100946.53
2022-08-23T05:59:28.659Z,100950.47
2022-08-23T06:01:55.230Z,100954.31
2022-08-23T06:04:21.985Z,100950.53
2022-08-23T06:06:48.763Z,100947.06
2022-08-23T06:09:18.111Z,100957.50
2022-08-23T06:11:47.159Z,100960.19
2022-08-23T06:14:14.989Z,100959.09
2022-08-23T06:16:47.965Z,100958.41
2022-08-23T06:19:15.134Z,100963.59
2022-08-23T06:21:42.636Z,100965.25
2022-08-23T06:24:09.615Z,100962.53
2022-08-23T06:26:38.843Z,100956.25
2022-08-23T06:29:08.318Z,100951.28
2022-08-23T06:31:48.013Z,100960.84
2022-08-23T06:34:19.148Z,100958.66
2022-08-23T06:36:47.796Z,100958.56
2022-08-23T06:39:16.509Z,100960.75
2022-08-23T06:41:43.425Z,100959.13
2022-08-23T06:44:10.274Z,100964.25
2022-08-23T06:46:38.336Z,100971.41
2022-08-23T06:49:06.601Z,100965.53
2022-08-23T06:51:39.252Z,100973.06
2022-08-23T06:54:10.071Z,100961.13
2022-08-23T06:56:40.541Z,100950.59
2022-08-23T06:59:07.808Z,100961.38
2022-08-23T07:01:49.052Z,100952.78
2022-08-23T07:04:24.521Z,100955.47
2022-08-23T07:06:51.011Z,100958.66
2022-08-23T07:09:18.598Z,100960.53
2022-08-23T07:11:46.261Z,100957.22
2022-08-23T07:14:16.407Z,100952.94
2022-08-23T07:16:49.830Z,100944.44
2022-08-23T07:19:21.397Z,100949.28
2022-08-23T07:21:49.351Z,100950.66
2022-08-23T07:24:17.646Z,100953.09
2022-08-23T07:26:45.743Z,100953.25
2022-08-23T07:29:13.717Z,100941.72
2022-08-23T07:31:46.260Z,100948.13
2022-08-23T07:34:15.615Z,100953.50
2022-08-23T07:36:43.945Z,100946.16
2022-08-23T07:39:12.233Z,100955.22
2022-08-23T07:41:38.901Z,100956.56
2022-08-23T07:44:08.182Z,100963.78
2022-08-23T07:46:36.933Z,100956.34
2022-08-23T07:49:04.527Z,100958.50
2022-08-23T07:51:32.906Z,100970.81
2022-08-23T07:54:01.732Z,100965.09
2022-08-23T07:56:29.068Z,100966.75
2022-08-23T07:58:55.993Z,100981.41
2022-08-23T08:01:26.161Z,100971.66
2022-08-23T08:03:55.132Z,100974.81
2022-08-23T08:06:26.342Z,100975.53
2022-08-23T08:08:53.599Z,100974.19
2022-08-23T08:11:22.594Z,100972.50
2022-08-23T08:13:51.151Z,100964.19
2022-08-23T08:16:30.561Z,100973.50
2022-08-23T08:18:59.460Z,100974.97
2022-08-23T08:21:27.485Z,100970.28
2022-08-23T08:23:54.990Z,100983.53
2022-08-23T08:26:22.925Z,100972.25
2022-08-23T08:28:49.393Z,100974.03
2022-08-23T08:31:16.317Z,100976.34
2022-08-23T08:33:42.874Z,100981.88
2022-08-23T08:36:28.708Z,100985.63
2022-08-23T08:38:58.833Z,100979.34
2022-08-23T08:42:05.271Z,100978.22
2022-08-23T08:44:38.377Z,100974.75
2022-08-23T08:47:16.172Z,100972.63
2022-08-23T08:50:14.694Z,100974.41
2022-08-23T08:52:47.231Z,100975.72
2022-08-23T08:55:30.934Z,100974.25
2022-08-23T08:57:57.998Z,100968.53
2022-08-23T09:00:28.554Z,100965.56
2022-08-23T09:02:58.247Z,100975.16
2022-08-23T09:05:31.667Z,100971.91
2022-08-23T09:08:13.887Z,100971.63
2022-08-23T09:10:43.491Z,100971.16
2022-08-23T09:13:25.004Z,100975.28
2022-08-23T09:16:03.558Z,100970.88
2022-08-23T09:18:34.694Z,100972.25
2022-08-23T09:21:04.802Z,100977.88
2022-08-23T09:23:38.240Z,100978.47
2022-08-23T09:26:22.992Z,100976.81
2022-08-23T09:29:00.142Z,100962.00
2022-08-23T09:31:42.575Z,100968.03
2022-08-23T09:34:15.561Z,100964.47
2022-08-23T09:36:42.024Z,100959.47
2022-08-23T09:39:33.228Z,100967.13
2022-08-23T09:42:00.491Z,100956.84
2022-08-23T09:44:35.863Z,100951.84
2022-08-23T09:47:16.677Z,100947.59
2022-08-23T09:49:45.733Z,100946.16
2022-08-23T09:52:26.524Z,100940.19
2022-08-23T09:55:06.376Z,100935.38
2022-08-23T09:57:34.731Z,100949.13
2022-08-23T10:00:29.297Z,100954.84
2022-08-23T10:03:19.936Z,100951.78
2022-08-23T10:05:52.113Z,100942.81
2022-08-23T10:08:28.455Z,100949.59
2022-08-23T10:11:06.930Z,100946.81
2022-08-23T10:13:36.925Z,100937.31
2022-08-23T10:16:03.490Z,100930.38
2022-08-23T10:18:51.507Z,100930.75
2022-08-23T10:21:38.203Z,100936.91
2022-08-23T10:24:38.876Z,100925.91
2022-08-23T10:27:37.417Z,100930.78
2022-08-23T10:30:15.219Z,100925.47
2022-08-23T10:32:54.131Z,100929.66
2022-08-23T10:35:30.547Z,100925.75
2022-08-23T10:38:19.554Z,100918.25
2022-08-23T10:41:04.813Z,100915.41
2022-08-23T10:43:40.573Z,100920.78
2022-08-23T10:46:10.237Z,100914.34
2022-08-23T10:48:52.118Z,100909.84
2022-08-23T10:51:31.599Z,100916.03
2022-08-23T10:54:04.093Z,100920.44
2022-08-23T10:56:30.563Z,100916.28
2022-08-23T10:59:07.434Z,100903.09
2022-08-23T11:02:04.967Z,100912.19
2022-08-23T11:04:53.390Z,100912.25
2022-08-23T11:07:57.301Z,100917.22
2022-08-23T11:10:55.924Z,100906.44
2022-08-23T11:13:27.334Z,100915.84
2022-08-23T11:16:29.154Z,100911.84
2022-08-23T11:18:55.652Z,100914.81
2022-08-23T11:21:25.137Z,100908.44
2022-08-23T11:23:54.659Z,100905.72
2022-08-23T11:26:27.094Z,100902.19
2022-08-23T11:29:17.242Z,100903.00
2022-08-23T11:31:57.600Z,100897.59
2022-08-23T11:34:56.879Z,100893.78
2022-08-23T11:37:27.182Z,100901.75
2022-08-23T11:39:59.698Z,100895.94
2022-08-23T11:42:38.124Z,100896.97
2022-08-23T11:45:31.281Z,100893.03
2022-08-23T11:48:38.300Z,100893.22
2022-08-23T11:51:34.027Z,100895.31
2022-08-23T11:54:15.941Z,100896.63
2022-08-23T11:57:04.466Z,100895.38
2022-08-23T12:00:00.177Z,100884.38
2022-08-23T12:03:13.066Z,100889.75
2022-08-23T12:05:51.090Z,100872.81
2022-08-23T12:08:21.945Z,100874.09
2022-08-23T12:10:48.381Z,100879.16
2022-08-23T12:13:20.956Z,100879.56
2022-08-23T12:16:06.342Z,100880.72
2022-08-23T12:18:42.364Z,100879.78
2022-08-23T12:21:23.613Z,100882.63
2022-08-23T12:23:53.454Z,100873.25
2022-08-23T12:26:49.574Z,100873.84
2022-08-23T12:29:32.716Z,100869.00
2022-08-23T12:32:06.455Z,100886.09
2022-08-23T12:34:39.032Z,100881.00
2022-08-23T12:37:15.137Z,100862.13
2022-08-23T12:39:57.439Z,100864.63
2022-08-23T12:42:31.233Z,100868.63
2022-08-23T12:45:07.086Z,100873.38
2022-08-23T12:47:34.327Z,100871.13
2022-08-23T12:50:06.052Z,100873.47
2022-08-23T12:52:35.299Z,100873.53
2022-08-23T12:55:02.256Z,100857.06
2022-08-23T12:57:38.472Z,100863.28
2022-08-23T13:00:16.495Z,100862.16
2022-08-23T13:03:06.298Z,100862.97
2022-08-23T13:05:54.786Z,100854.91
2022-08-23T13:08:45.166Z,100852.75
2022-08-23T13:11:14.635Z,100864.41
2022-08-23T13:13:44.065Z,100851.88
2022-08-23T13:16:33.788Z,100859.97
2022-08-23T13:19:34.327Z,100850.56
2022-08-23T13:22:13.081Z,100841.53
2022-08-23T13:24:44.786Z,100848.84
2022-08-23T13:27:27.453Z,100848.38
2022-08-23T13:30:09.079Z,100851.66
2022-08-23T13:32:43.565Z,100846.78
2022-08-23T13:35:31.704Z,100848.16
2022-08-23T13:38:19.862Z,100843.88
2022-08-23T13:40:50.077Z,100841.31
2022-08-23T13:43:27.170Z,100846.59
2022-08-23T13:45:57.356Z,100846.16
2022-08-23T13:48:34.869Z,100849.97
2022-08-23T13:51:37.015Z,100842.81
2022-08-23T13:54:14.617Z,100845.03
2022-08-23T13:56:50.625Z,100842.13
2022-08-23T13:59:22.857Z,100838.56
2022-08-23T14:01:51.887Z,100840.22
2022-08-23T14:04:18.372Z,100842.41
2022-08-23T14:06:48.651Z,100831.41
2022-08-23T14:09:16.718Z,100834.81
2022-08-23T14:11:43.770Z,100837.94
2022-08-23T14:14:12.341Z,100836.25
2022-08-23T14:16:40.063Z,100834.16
2022-08-23T14:19:54.359Z,100831.47
2022-08-23T14:21:56.500Z,100835.44
2022-08-23T14:24:23.001Z,100826.81
2022-08-23T14:26:52.326Z,100826.34
2022-08-23T14:29:23.491Z,100838.19
2022-08-23T14:31:53.031Z,100829.44
2022-08-23T14:34:20.814Z,100823.00
2022-08-23T14:39:34.680Z,100825.72
2022-08-23T14:42:02.755Z,100819.09
2022-08-23T14:44:35.829Z,100817.97
2022-08-23T14:47:04.282Z,100812.84
2022-08-23T14:49:30.763Z,100817.75
2022-08-23T14:51:57.277Z,100816.81
2022-08-23T14:54:25.885Z,100813.75
2022-08-23T14:56:53.324Z,100826.34
2022-08-23T14:59:20.416Z,100818.63
2022-08-23T15:01:49.894Z,100816.25
2022-08-23T15:04:19.686Z,100818.84
2022-08-23T15:07:13.986Z,100816.91
2022-08-23T15:09:33.815Z,100819.16
2022-08-23T15:14:47.058Z,100814.19
2022-08-23T15:17:13.985Z,100808.09
2022-08-23T15:19:40.650Z,100808.28
2022-08-23T15:22:18.602Z,100810.66
2022-08-23T15:24:48.053Z,100809.03
2022-08-23T15:27:14.555Z,100810.28
2022-08-23T15:29:41.024Z,100809.13
2022-08-23T15:32:08.717Z,100805.13
2022-08-23T15:34:37.044Z,100814.97
2022-08-23T15:37:06.637Z,100811.69
2022-08-23T15:39:33.133Z,100816.72
2022-08-23T15:41:59.639Z,100812.06
2022-08-23T15:44:26.111Z,100811.22
2022-08-23T15:46:54.567Z,100815.00
2022-08-23T15:49:23.365Z,100816.25
2022-08-23T15:51:50.017Z,100812.06
2022-08-23T15:54:16.691Z,100816.97
2022-08-23T15:56:53.132Z,100807.16
2022-08-23T15:59:21.651Z,100819.09
2022-08-23T16:01:48.296Z,100809.94
2022-08-23T16:04:14.789Z,100813.97
2022-08-23T16:06:41.354Z,100809.28
2022-08-23T16:09:14.459Z,100808.28
2022-08-23T16:11:43.507Z,100819.69
2022-08-23T16:14:11.747Z,100810.38
2022-08-23T16:16:40.380Z,100813.47
2022-08-23T16:19:08.828Z,100810.63
2022-08-23T16:21:36.300Z,100809.69
2022-08-23T16:24:03.384Z,100808.06
2022-08-23T16:26:34.775Z,100817.94
2022-08-23T16:29:01.703Z,100816.09
2022-08-23T16:31:38.282Z,100817.31
2022-08-23T16:34:14.613Z,100811.50
2022-08-23T16:36:44.321Z,100808.88
2022-08-23T16:39:12.403Z,100815.25
2022-08-23T16:41:38.861Z,100812.59
2022-08-23T16:44:06.132Z,100818.41
2022-08-23T16:46:32.894Z,100820.94
2022-08-23T16:48:59.411Z,100816.50
2022-08-23T16:51:26.248Z,100817.97
2022-08-23T16:54:01.730Z,100820.94
2022-08-23T16:56:30.856Z,100824.91
2022-08-23T16:58:57.440Z,100821.53
2022-08-23T17:01:24.381Z,100828.72
2022-08-23T17:03:51.209Z,100826.41
2022-08-23T17:06:18.186Z,100819.22
2022-08-23T17:08:45.063Z,100836.03
2022-08-23T17:11:15.081Z,100831.41
2022-08-23T17:13:41.875Z,100833.69
2022-08-23T17:16:09.075Z,100827.59
2022-08-23T17:18:35.957Z,100831.22
2022-08-23T17:21:05.780Z,100831.44
2022-08-23T17:23:32.936Z,100838.81
2022-08-23T17:26:00.578Z,100834.13
2022-08-23T17:28:27.894Z,100832.47
2022-08-23T17:30:58.330Z,100832.50
2022-08-23T17:33:24.793Z,100838.63
2022-08-23T17:35:51.356Z,100843.09
2022-08-23T17:38:18.084Z,100840.28
2022-08-23T17:40:45.258Z,100843.25
2022-08-23T17:43:12.713Z,100848.66
2022-08-23T17:45:44.988Z,100847.63
2022-08-23T17:48:12.068Z,100849.06
2022-08-23T17:50:39.477Z,100858.81
2022-08-23T17:53:06.918Z,100857.91
2022-08-23T17:55:35.376Z,100856.88
2022-08-23T17:58:04.135Z,100862.53
2022-08-23T18:00:36.008Z,100862.28
2022-08-23T18:03:02.960Z,100867.78
2022-08-23T18:05:33.148Z,100868.00
2022-08-23T18:08:01.364Z,100866.28
2022-08-23T18:10:29.899Z,100873.28
2022-08-23T18:12:57.498Z,100874.94
2022-08-23T18:15:24.414Z,100869.94
2022-08-23T18:17:51.591Z,100878.16
2022-08-23T18:20:23.148Z,100882.16
2022-08-23T18:22:49.658Z,100877.47
2022-08-23T18:25:17.034Z,100883.28
2022-08-23T18:28:02.795Z,100883.47
2022-08-23T18:30:29.331Z,100892.97
2022-08-23T18:32:57.298Z,100891.66
2022-08-23T18:35:30.528Z,100897.56
2022-08-23T18:37:57.874Z,100901.13
2022-08-23T18:40:26.155Z,100897.78
2022-08-23T18:42:52.961Z,100901.03
2022-08-23T18:45:19.935Z,100903.03
2022-08-23T18:47:48.471Z,100905.53
2022-08-23T18:50:16.377Z,100908.84
2022-08-23T18:52:43.036Z,100914.22
2022-08-23T18:55:09.946Z,100912.16
2022-08-23T18:57:36.611Z,100924.75
2022-08-23T19:00:05.114Z,100923.06
2022-08-23T19:02:33.904Z,100927.22
2022-08-23T19:05:02.841Z,100926.69
2022-08-23T19:07:29.339Z,100931.38
2022-08-23T19:09:55.913Z,100929.41
2022-08-23T19:12:22.472Z,100931.38
2022-08-23T19:14:48.992Z,100942.28
2022-08-23T19:17:15.569Z,100953.03
2022-08-23T19:19:42.363Z,100958.88
2022-08-23T19:22:08.896Z,100950.69
2022-08-23T19:24:35.391Z,100961.69
2022-08-23T19:27:01.914Z,100961.03
2022-08-23T19:29:28.466Z,100957.53
2022-08-23T19:31:55.106Z,100962.13
2022-08-23T19:34:22.841Z,100973.59
2022-08-23T19:37:00.253Z,100974.72
2022-08-23T19:39:28.279Z,100972.94
2022-08-23T19:41:55.161Z,100969.44
2022-08-23T19:44:22.435Z,100969.06
2022-08-23T19:46:49.239Z,100973.16
2022-08-23T19:49:16.101Z,100980.28
2022-08-23T19:51:43.175Z,100982.03
2022-08-23T19:54:12.269Z,100985.31
2022-08-23T19:57:00.076Z,100981.00
2022-08-23T19:59:35.239Z,100984.44
2022-08-23T20:02:02.863Z,100984.47
2022-08-23T20:04:31.516Z,100990.16
2022-08-23T20:06:59.435Z,100996.97
2022-08-23T20:09:29.003Z,100995.41
2022-08-23T20:11:56.362Z,100999.31
2022-08-23T20:14:24.858Z,100994.16
2022-08-23T20:16:51.940Z,100992.88
2022-08-23T20:19:18.603Z,100996.97
2022-08-23T20:21:45.238Z,100996.44
2022-08-23T20:24:15.557Z,101001.75
2022-08-23T20:26:43.158Z,100993.06
2022-08-23T20:29:14.246Z,100995.34
2022-08-23T20:31:48.765Z,101005.88
2022-08-23T20:34:15.471Z,100998.16
2022-08-23T20:36:41.927Z,100993.91
2022-08-23T20:39:08.620Z,100992.44
2022-08-23T20:41:38.051Z,100991.59
2022-08-23T20:44:06.923Z,100994.13
2022-08-23T20:46:33.489Z,101001.69
2022-08-23T20:48:59.998Z,101004.53
2022-08-23T20:51:28.045Z,101002.56
2022-08-23T20:53:55.869Z,101006.09
2022-08-23T20:56:23.425Z,101004.66
2022-08-23T20:58:50.834Z,101000.44
2022-08-23T21:01:18.567Z,101000.56
2022-08-23T21:03:45.482Z,100998.81
2022-08-23T21:06:16.493Z,101003.09
2022-08-23T21:08:48.515Z,101004.38
2022-08-23T21:11:15.683Z,101005.03
2022-08-23T21:13:44.059Z,101010.50
2022-08-23T21:16:11.980Z,101017.09
2022-08-23T21:18:38.515Z,101015.63
2022-08-23T21:21:05.105Z,101017.38
2022-08-23T21:23:31.644Z,101022.97
2022-08-23T21:25:58.983Z,101014.94
2022-08-23T21:28:26.439Z,101019.63
2022-08-23T21:30:53.150Z,101014.38
2022-08-23T21:33:21.833Z,101014.09
2022-08-23T21:35:48.950Z,101014.56
2022-08-23T21:38:15.527Z,101019.16
2022-08-23T21:40:42.063Z,101015.06
2022-08-23T21:43:08.585Z,101020.69
2022-08-23T21:45:35.120Z,101012.22
2022-08-23T21:48:01.634Z,101013.38
2022-08-23T21:50:28.704Z,101014.94
2022-08-23T21:52:56.526Z,101019.19
2022-08-23T21:55:23.785Z,101021.03
2022-08-23T21:58:00.910Z,101016.84
2022-08-23T22:00:27.404Z,101022.06
2022-08-23T22:02:53.949Z,101019.88
2022-08-23T22:05:20.447Z,101018.84
2022-08-23T22:07:47.083Z,101021.06
2022-08-23T22:10:14.146Z,101020.91
2022-08-23T22:12:41.707Z,101021.06
2022-08-23T22:15:08.934Z,101016.69
2022-08-23T22:17:35.551Z,101019.91
2022-08-23T22:20:04.984Z,101013.47
2022-08-23T22:22:33.319Z,101015.16
2022-08-23T22:25:01.363Z,101014.66
2022-08-23T22:27:28.600Z,101018.22
2022-08-23T22:29:55.745Z,101017.19
2022-08-23T22:32:22.835Z,101010.41
2022-08-23T22:34:49.483Z,101008.03
2022-08-23T22:37:16.212Z,101014.81
2022-08-23T22:39:42.917Z,101023.97
2022-08-23T22:42:10.070Z,101023.25
2022-08-23T22:44:37.109Z,101022.63
2022-08-23T22:47:03.669Z,101023.78
2022-08-23T22:49:30.897Z,101017.69
2022-08-23T22:51:57.816Z,101015.16
2022-08-23T22:54:25.049Z,101019.91
2022-08-23T22:56:53.108Z,101018.50
2022-08-23T22:59:21.698Z,101022.59
2022-08-23T23:01:55.539Z,101023.31
2022-08-23T23:04:26.318Z,101024.41
2022-08-23T23:06:54.348Z,101019.44
2022-08-23T23:09:21.000Z,101028.00
2022-08-23T23:11:47.644Z,101018.13
2022-08-23T23:14:15.822Z,101017.16
2022-08-23T23:16:43.081Z,101018.00
2022-08-23T23:19:28.297Z,101017.81
2022-08-23T23:21:57.507Z,101021.63
2022-08-23T23:24:34.511Z,101015.41
2022-08-23T23:27:01.626Z,101018.84
2022-08-23T23:29:29.628Z,101015.75
2022-08-23T23:31:56.879Z,101012.34
2022-08-23T23:34:23.817Z,101016.06
2022-08-23T23:36:55.828Z,101013.75
2022-08-23T23:39:22.699Z,101017.81
2022-08-23T23:41:49.171Z,101020.16
2022-08-23T23:44:16.230Z,101019.66
2022-08-23T23:46:51.018Z,101023.56
2022-08-23T23:49:17.629Z,101031.97
2022-08-23T23:51:50.125Z,101022.22
2022-08-23T23:54:16.641Z,101024.94
2022-08-23T23:56:43.103Z,101037.06
2022-08-23T23:59:09.569Z,101031.03
